sensor_id;sensor_type;location;lat;lon;timestamp;pressure;altitude;pressure_sealevel;temperature;humidity
37972;BME280;23794;48.234;8.344;2023-01-15T00:02:15;93257.50;;;7.92;77.86
37972;BME280;23794;48.234;8.344;2023-01-15T00:04:43;93259.84;;;7.94;77.70
37972;BME280;23794;48.234;8.344;2023-01-15T00:07:10;93262.97;;;7.92;77.81
37972;BME280;23794;48.234;8.344;2023-01-15T00:09:36;93231.41;;;7.95;76.92
37972;BME280;23794;48.234;8.344;2023-01-15T00:12:03;93232.81;;;8.07;76.97
37972;BME280;23794;48.234;8.344;2023-01-15T00:14:30;93225.88;;;8.02;76.77
37972;BME280;23794;48.234;8.344;2023-01-15T00:16:57;93222.69;;;8.07;77.23
37972;BME280;23794;48.234;8.344;2023-01-15T00:19:23;93227.00;;;8.04;77.03
37972;BME280;23794;48.234;8.344;2023-01-15T00:21:50;93219.88;;;8.14;76.37
37972;BME280;23794;48.234;8.344;2023-01-15T00:24:18;93228.03;;;8.14;77.67
37972;BME280;23794;48.234;8.344;2023-01-15T00:27:03;93214.88;;;8.09;76.97
37972;BME280;23794;48.234;8.344;2023-01-15T00:29:48;93211.50;;;7.98;78.41
37972;BME280;23794;48.234;8.344;2023-01-15T00:32:15;93211.63;;;7.87;79.80
37972;BME280;23794;48.234;8.344;2023-01-15T00:34:42;93221.44;;;7.81;80.38
37972;BME280;23794;48.234;8.344;2023-01-15T00:37:08;93219.53;;;7.74;80.53
37972;BME280;23794;48.234;8.344;2023-01-15T00:39:35;93206.72;;;7.75;80.08
37972;BME280;23794;48.234;8.344;2023-01-15T00:42:02;93208.22;;;7.79;80.38
37972;BME280;23794;48.234;8.344;2023-01-15T00:44:31;93213.28;;;7.77;80.96
37972;BME280;23794;48.234;8.344;2023-01-15T00:46:59;93217.66;;;7.71;81.52
37972;BME280;23794;48.234;8.344;2023-01-15T00:49:26;93215.22;;;7.77;80.48
37972;BME280;23794;48.234;8.344;2023-01-15T00:51:52;93205.91;;;7.74;80.63
37972;BME280;23794;48.234;8.344;2023-01-15T00:54:19;93189.94;;;7.76;80.75
37972;BME280;23794;48.234;8.344;2023-01-15T00:56:46;93197.81;;;7.67;82.02
37972;BME280;23794;48.234;8.344;2023-01-15T00:59:13;93190.91;;;7.59;82.62
37972;BME280;23794;48.234;8.344;2023-01-15T01:01:39;93201.00;;;7.62;82.07
37972;BME280;23794;48.234;8.344;2023-01-15T01:04:06;93186.19;;;7.63;81.64
37972;BME280;23794;48.234;8.344;2023-01-15T01:06:34;93190.03;;;7.69;81.81
37972;BME280;23794;48.234;8.344;2023-01-15T01:09:00;93183.34;;;7.74;81.66
37972;BME280;23794;48.234;8.344;2023-01-15T01:11:29;93174.34;;;7.77;81.12
37972;BME280;23794;48.234;8.344;2023-01-15T01:14:00;93171.25;;;7.75;81.56
37972;BME280;23794;48.234;8.344;2023-01-15T01:16:35;93175.13;;;7.77;81.44
37972;BME280;23794;48.234;8.344;2023-01-15T01:19:15;93159.47;;;7.81;81.77
37972;BME280;23794;48.234;8.344;2023-01-15T01:21:43;93159.84;;;7.83;81.18
37972;BME280;23794;48.234;8.344;2023-01-15T01:24:13;93180.53;;;7.81;81.63
37972;BME280;23794;48.234;8.344;2023-01-15T01:26:39;93146.19;;;7.87;80.72
37972;BME280;23794;48.234;8.344;2023-01-15T01:29:06;93143.03;;;7.88;80.65
37972;BME280;23794;48.234;8.344;2023-01-15T01:31:33;93179.69;;;7.84;80.73
37972;BME280;23794;48.234;8.344;2023-01-15T01:34:00;93157.31;;;8.00;80.23
37972;BME280;23794;48.234;8.344;2023-01-15T01:36:29;93144.84;;;7.99;80.64
37972;BME280;23794;48.234;8.344;2023-01-15T01:38:56;93127.31;;;8.00;80.77
37972;BME280;23794;48.234;8.344;2023-01-15T01:41:23;93178.03;;;7.94;81.13
37972;BME280;23794;48.234;8.344;2023-01-15T01:44:57;93149.19;;;7.96;80.18
37972;BME280;23794;48.234;8.344;2023-01-15T01:46:51;93128.41;;;8.06;79.71
37972;BME280;23794;48.234;8.344;2023-01-15T01:49:20;93122.03;;;8.16;78.93
37972;BME280;23794;48.234;8.344;2023-01-15T01:52:07;93134.50;;;8.17;79.96
37972;BME280;23794;48.234;8.344;2023-01-15T01:54:37;93147.38;;;8.13;80.55
37972;BME280;23794;48.234;8.344;2023-01-15T01:57:05;93118.19;;;8.10;79.34
37972;BME280;23794;48.234;8.344;2023-01-15T01:59:33;93130.22;;;8.16;79.41
37972;BME280;23794;48.234;8.344;2023-01-15T02:02:01;93115.44;;;8.14;79.13
37972;BME280;23794;48.234;8.344;2023-01-15T02:04:29;93119.66;;;8.18;78.61
37972;BME280;23794;48.234;8.344;2023-01-15T02:06:59;93109.84;;;8.25;78.20
37972;BME280;23794;48.234;8.344;2023-01-15T02:09:26;93106.69;;;8.26;79.36
37972;BME280;23794;48.234;8.344;2023-01-15T02:11:56;93123.09;;;8.23;79.82
37972;BME280;23794;48.234;8.344;2023-01-15T02:14:38;93104.53;;;8.14;79.57
37972;BME280;23794;48.234;8.344;2023-01-15T02:28:39;93087.59;;;8.26;77.87
37972;BME280;23794;48.234;8.344;2023-01-15T02:31:08;93094.59;;;8.27;78.00
37972;BME280;23794;48.234;8.344;2023-01-15T02:33:40;93085.88;;;8.36;76.92
37972;BME280;23794;48.234;8.344;2023-01-15T02:36:14;93097.16;;;8.38;76.50
37972;BME280;23794;48.234;8.344;2023-01-15T02:38:43;93081.59;;;8.35;77.18
37972;BME280;23794;48.234;8.344;2023-01-15T02:41:13;93075.31;;;8.38;76.79
37972;BME280;23794;48.234;8.344;2023-01-15T02:43:49;93078.50;;;8.33;76.33
37972;BME280;23794;48.234;8.344;2023-01-15T02:46:22;93069.44;;;8.40;75.60
37972;BME280;23794;48.234;8.344;2023-01-15T02:48:52;93073.06;;;8.57;75.30
37972;BME280;23794;48.234;8.344;2023-01-15T02:51:23;93049.34;;;8.54;76.68
37972;BME280;23794;48.234;8.344;2023-01-15T02:53:56;93040.84;;;8.48;75.53
37972;BME280;23794;48.234;8.344;2023-01-15T02:56:27;93039.13;;;8.58;75.06
37972;BME280;23794;48.234;8.344;2023-01-15T02:58:59;93044.00;;;8.46;75.54
37972;BME280;23794;48.234;8.344;2023-01-15T03:01:33;93003.06;;;8.46;75.57
37972;BME280;23794;48.234;8.344;2023-01-15T03:06:37;93033.53;;;8.65;73.48
37972;BME280;23794;48.234;8.344;2023-01-15T03:09:07;93056.56;;;8.64;74.43
37972;BME280;23794;48.234;8.344;2023-01-15T03:12:04;93045.72;;;8.60;74.77
37972;BME280;23794;48.234;8.344;2023-01-15T03:14:39;93050.72;;;8.65;74.70
37972;BME280;23794;48.234;8.344;2023-01-15T03:17:16;93068.38;;;8.57;75.51
37972;BME280;23794;48.234;8.344;2023-01-15T03:20:05;93033.16;;;8.43;76.20
37972;BME280;23794;48.234;8.344;2023-01-15T03:22:38;93061.19;;;8.43;77.01
37972;BME280;23794;48.234;8.344;2023-01-15T03:25:10;93041.03;;;8.37;76.61
37972;BME280;23794;48.234;8.344;2023-01-15T03:27:44;93055.22;;;8.28;77.14
37972;BME280;23794;48.234;8.344;2023-01-15T03:30:17;93067.75;;;8.22;78.00
37972;BME280;23794;48.234;8.344;2023-01-15T03:32:44;93033.13;;;8.19;77.32
37972;BME280;23794;48.234;8.344;2023-01-15T03:35:44;93029.75;;;8.11;78.90
37972;BME280;23794;48.234;8.344;2023-01-15T03:38:18;93032.56;;;8.04;79.21
37972;BME280;23794;48.234;8.344;2023-01-15T03:41:17;93041.50;;;8.08;78.86
37972;BME280;23794;48.234;8.344;2023-01-15T03:48:56;93051.16;;;8.13;78.45
37972;BME280;23794;48.234;8.344;2023-01-15T03:51:38;93029.03;;;8.07;78.65
37972;BME280;23794;48.234;8.344;2023-01-15T03:54:20;93054.06;;;8.02;78.60
37972;BME280;23794;48.234;8.344;2023-01-15T03:57:02;93022.34;;;8.12;78.81
37972;BME280;23794;48.234;8.344;2023-01-15T03:59:36;93021.28;;;8.06;78.52
37972;BME280;23794;48.234;8.344;2023-01-15T04:02:06;93032.06;;;8.13;78.38
37972;BME280;23794;48.234;8.344;2023-01-15T04:04:37;93034.81;;;8.13;78.10
37972;BME280;23794;48.234;8.344;2023-01-15T04:07:05;93056.19;;;8.14;77.73
37972;BME280;23794;48.234;8.344;2023-01-15T04:09:37;93014.03;;;8.19;76.64
37972;BME280;23794;48.234;8.344;2023-01-15T04:12:07;93019.88;;;8.21;76.85
37972;BME280;23794;48.234;8.344;2023-01-15T04:14:39;93015.13;;;8.25;76.64
37972;BME280;23794;48.234;8.344;2023-01-15T04:17:08;93012.13;;;8.16;76.84
37972;BME280;23794;48.234;8.344;2023-01-15T04:19:35;92997.38;;;8.13;76.75
37972;BME280;23794;48.234;8.344;2023-01-15T04:22:04;93016.78;;;8.19;76.31
37972;BME280;23794;48.234;8.344;2023-01-15T04:24:31;93018.25;;;8.24;76.26
37972;BME280;23794;48.234;8.344;2023-01-15T04:26:58;93041.22;;;8.26;76.79
37972;BME280;23794;48.234;8.344;2023-01-15T04:29:24;93017.09;;;8.25;75.96
37972;BME280;23794;48.234;8.344;2023-01-15T04:31:51;93021.06;;;8.20;76.17
37972;BME280;23794;48.234;8.344;2023-01-15T04:34:26;93000.28;;;8.26;76.79
37972;BME280;23794;48.234;8.344;2023-01-15T04:36:54;93014.75;;;8.23;76.29
37972;BME280;23794;48.234;8.344;2023-01-15T04:39:21;93042.13;;;8.16;76.61
37972;BME280;23794;48.234;8.344;2023-01-15T04:41:47;93031.53;;;8.22;75.50
37972;BME280;23794;48.234;8.344;2023-01-15T04:44:34;92993.34;;;8.22;76.09
37972;BME280;23794;48.234;8.344;2023-01-15T04:47:01;93010.84;;;8.24;75.94
37972;BME280;23794;48.234;8.344;2023-01-15T04:49:28;92991.31;;;8.26;77.23
37972;BME280;23794;48.234;8.344;2023-01-15T04:51:54;92998.69;;;8.29;75.97
37972;BME280;23794;48.234;8.344;2023-01-15T04:54:21;92972.22;;;8.26;76.23
37972;BME280;23794;48.234;8.344;2023-01-15T04:56:50;92976.56;;;8.23;76.62
37972;BME280;23794;48.234;8.344;2023-01-15T04:59:20;92987.00;;;8.28;75.84
37972;BME280;23794;48.234;8.344;2023-01-15T05:01:47;93003.00;;;8.26;75.81
37972;BME280;23794;48.234;8.344;2023-01-15T05:04:29;92976.50;;;8.27;76.12
37972;BME280;23794;48.234;8.344;2023-01-15T05:06:56;93001.84;;;8.27;75.53
37972;BME280;23794;48.234;8.344;2023-01-15T05:09:23;92970.75;;;8.21;75.62
37972;BME280;23794;48.234;8.344;2023-01-15T05:11:49;92967.69;;;8.19;75.73
37972;BME280;23794;48.234;8.344;2023-01-15T05:14:16;92973.56;;;8.17;76.64
37972;BME280;23794;48.234;8.344;2023-01-15T05:16:42;92967.25;;;8.20;76.75
37972;BME280;23794;48.234;8.344;2023-01-15T05:19:09;92945.44;;;8.20;76.37
37972;BME280;23794;48.234;8.344;2023-01-15T05:21:39;92943.56;;;8.17;76.59
37972;BME280;23794;48.234;8.344;2023-01-15T05:24:07;92957.25;;;8.14;77.18
37972;BME280;23794;48.234;8.344;2023-01-15T05:26:35;92960.00;;;8.10;77.46
37972;BME280;23794;48.234;8.344;2023-01-15T05:29:02;92955.69;;;8.13;77.79
37972;BME280;23794;48.234;8.344;2023-01-15T05:31:29;92952.25;;;8.09;77.65
37972;BME280;23794;48.234;8.344;2023-01-15T05:33:56;92949.41;;;8.16;76.43
37972;BME280;23794;48.234;8.344;2023-01-15T05:36:26;92946.03;;;8.08;77.19
37972;BME280;23794;48.234;8.344;2023-01-15T05:38:54;92957.00;;;8.04;77.77
37972;BME280;23794;48.234;8.344;2023-01-15T05:41:23;92955.16;;;7.98;78.34
37972;BME280;23794;48.234;8.344;2023-01-15T05:44:10;92947.34;;;8.00;77.63
37972;BME280;23794;48.234;8.344;2023-01-15T05:46:39;92955.03;;;8.05;76.39
37972;BME280;23794;48.234;8.344;2023-01-15T05:49:08;92935.19;;;8.04;76.81
37972;BME280;23794;48.234;8.344;2023-01-15T05:51:36;92949.16;;;8.07;76.26
37972;BME280;23794;48.234;8.344;2023-01-15T05:54:04;92974.84;;;8.09;75.94
37972;BME280;23794;48.234;8.344;2023-01-15T05:56:34;92953.38;;;8.11;76.14
37972;BME280;23794;48.234;8.344;2023-01-15T05:59:01;92961.22;;;8.09;77.47
37972;BME280;23794;48.234;8.344;2023-01-15T06:01:28;92975.91;;;7.92;78.14
37972;BME280;23794;48.234;8.344;2023-01-15T06:03:59;92966.41;;;7.76;79.54
37972;BME280;23794;48.234;8.344;2023-01-15T06:06:27;92949.75;;;7.70;79.46
37972;BME280;23794;48.234;8.344;2023-01-15T06:08:54;92968.94;;;7.63;79.97
37972;BME280;23794;48.234;8.344;2023-01-15T06:11:20;92975.31;;;7.53;80.55
37972;BME280;23794;48.234;8.344;2023-01-15T06:13:47;92980.03;;;7.49;79.87
37972;BME280;23794;48.234;8.344;2023-01-15T06:16:14;92994.69;;;7.59;79.82
37972;BME280;23794;48.234;8.344;2023-01-15T06:18:41;93013.03;;;7.54;80.24
37972;BME280;23794;48.234;8.344;2023-01-15T06:21:09;92999.53;;;7.47;79.82
37972;BME280;23794;48.234;8.344;2023-01-15T06:23:37;92978.50;;;7.44;79.50
37972;BME280;23794;48.234;8.344;2023-01-15T06:26:16;92973.03;;;7.48;79.38
37972;BME280;23794;48.234;8.344;2023-01-15T06:28:44;92947.75;;;7.47;78.63
37972;BME280;23794;48.234;8.344;2023-01-15T06:31:16;92962.09;;;7.51;78.92
37972;BME280;23794;48.234;8.344;2023-01-15T06:33:42;92965.59;;;7.52;78.22
37972;BME280;23794;48.234;8.344;2023-01-15T06:36:15;92957.41;;;7.52;78.76
37972;BME280;23794;48.234;8.344;2023-01-15T06:38:43;92964.50;;;7.46;79.02
37972;BME280;23794;48.234;8.344;2023-01-15T06:41:17;92978.16;;;7.42;79.57
37972;BME280;23794;48.234;8.344;2023-01-15T06:44:03;92980.09;;;7.41;79.80
37972;BME280;23794;48.234;8.344;2023-01-15T06:46:51;93003.16;;;7.33;80.41
37972;BME280;23794;48.234;8.344;2023-01-15T06:49:37;92998.13;;;7.32;80.38
37972;BME280;23794;48.234;8.344;2023-01-15T06:52:05;93015.34;;;7.25;80.44
37972;BME280;23794;48.234;8.344;2023-01-15T06:54:33;93022.50;;;7.12;80.20
37972;BME280;23794;48.234;8.344;2023-01-15T06:57:00;93048.06;;;6.87;79.89
37972;BME280;23794;48.234;8.344;2023-01-15T06:59:26;93052.19;;;6.60;79.31
37972;BME280;23794;48.234;8.344;2023-01-15T07:01:53;93061.00;;;6.34;79.04
37972;BME280;23794;48.234;8.344;2023-01-15T07:04:19;93059.63;;;6.11;79.05
37972;BME280;23794;48.234;8.344;2023-01-15T07:06:46;93101.28;;;5.97;78.62
37972;BME280;23794;48.234;8.344;2023-01-15T07:09:13;93112.75;;;5.59;78.32
37972;BME280;23794;48.234;8.344;2023-01-15T07:11:40;93114.06;;;5.26;78.63
37972;BME280;23794;48.234;8.344;2023-01-15T07:14:25;93126.91;;;4.93;79.64
37972;BME280;23794;48.234;8.344;2023-01-15T07:16:54;93130.41;;;4.71;80.40
37972;BME280;23794;48.234;8.344;2023-01-15T07:19:21;93172.25;;;4.60;80.28
37972;BME280;23794;48.234;8.344;2023-01-15T07:21:48;93169.56;;;4.45;79.85
37972;BME280;23794;48.234;8.344;2023-01-15T07:24:15;93171.91;;;4.39;80.76
37972;BME280;23794;48.234;8.344;2023-01-15T07:26:42;93173.41;;;4.26;80.85
37972;BME280;23794;48.234;8.344;2023-01-15T07:29:11;93182.31;;;4.19;81.15
37972;BME280;23794;48.234;8.344;2023-01-15T07:31:37;93190.06;;;4.17;81.26
37972;BME280;23794;48.234;8.344;2023-01-15T07:34:05;93177.63;;;4.05;81.44
37972;BME280;23794;48.234;8.344;2023-01-15T07:36:31;93198.53;;;3.94;81.24
37972;BME280;23794;48.234;8.344;2023-01-15T07:38:58;93201.63;;;3.96;81.00
37972;BME280;23794;48.234;8.344;2023-01-15T07:41:24;93192.69;;;3.85;81.41
37972;BME280;23794;48.234;8.344;2023-01-15T07:44:10;93189.53;;;3.72;80.94
37972;BME280;23794;48.234;8.344;2023-01-15T07:46:56;93198.06;;;3.67;81.17
37972;BME280;23794;48.234;8.344;2023-01-15T07:49:42;93211.19;;;3.65;80.53
37972;BME280;23794;48.234;8.344;2023-01-15T07:52:13;93223.56;;;3.66;81.51
37972;BME280;23794;48.234;8.344;2023-01-15T07:54:41;93234.81;;;3.64;80.99
37972;BME280;23794;48.234;8.344;2023-01-15T07:57:08;93243.66;;;3.61;80.64
37972;BME280;23794;48.234;8.344;2023-01-15T07:59:35;93256.00;;;3.48;80.98
37972;BME280;23794;48.234;8.344;2023-01-15T08:02:02;93261.38;;;3.40;81.28
37972;BME280;23794;48.234;8.344;2023-01-15T08:04:29;93259.03;;;3.39;81.16
37972;BME280;23794;48.234;8.344;2023-01-15T08:06:58;93260.13;;;3.31;81.16
37972;BME280;23794;48.234;8.344;2023-01-15T08:09:25;93286.44;;;3.30;81.44
37972;BME280;23794;48.234;8.344;2023-01-15T08:11:51;93277.16;;;3.31;81.50
37972;BME280;23794;48.234;8.344;2023-01-15T08:14:36;93297.63;;;3.25;81.83
37972;BME280;23794;48.234;8.344;2023-01-15T08:17:22;93301.47;;;3.24;81.44
37972;BME280;23794;48.234;8.344;2023-01-15T08:19:48;93293.75;;;3.22;81.71
37972;BME280;23794;48.234;8.344;2023-01-15T08:22:15;93295.59;;;3.15;81.67
37972;BME280;23794;48.234;8.344;2023-01-15T08:24:42;93298.63;;;3.06;81.38
37972;BME280;23794;48.234;8.344;2023-01-15T08:27:08;93301.63;;;2.97;81.71
37972;BME280;23794;48.234;8.344;2023-01-15T08:29:35;93310.59;;;3.01;81.48
37972;BME280;23794;48.234;8.344;2023-01-15T08:32:01;93314.44;;;3.00;81.70
37972;BME280;23794;48.234;8.344;2023-01-15T08:34:28;93310.09;;;2.88;81.21
37972;BME280;23794;48.234;8.344;2023-01-15T08:36:55;93323.63;;;2.92;80.93
37972;BME280;23794;48.234;8.344;2023-01-15T08:39:26;93322.06;;;2.91;81.05
37972;BME280;23794;48.234;8.344;2023-01-15T08:41:53;93321.72;;;2.92;80.99
37972;BME280;23794;48.234;8.344;2023-01-15T08:44:20;93322.50;;;2.93;81.22
37972;BME280;23794;48.234;8.344;2023-01-15T08:46:47;93310.06;;;2.85;81.33
37972;BME280;23794;48.234;8.344;2023-01-15T08:49:15;93310.47;;;2.87;81.31
37972;BME280;23794;48.234;8.344;2023-01-15T08:51:43;93321.28;;;2.87;81.01
37972;BME280;23794;48.234;8.344;2023-01-15T08:54:11;93328.53;;;2.79;80.55
37972;BME280;23794;48.234;8.344;2023-01-15T08:56:38;93344.66;;;2.68;80.06
37972;BME280;23794;48.234;8.344;2023-01-15T08:59:05;93346.63;;;2.71;80.79
37972;BME280;23794;48.234;8.344;2023-01-15T09:01:34;93356.56;;;2.60;80.73
37972;BME280;23794;48.234;8.344;2023-01-15T09:04:01;93367.25;;;2.49;80.14
37972;BME280;23794;48.234;8.344;2023-01-15T09:06:28;93376.13;;;2.46;80.66
37972;BME280;23794;48.234;8.344;2023-01-15T09:08:54;93377.91;;;2.35;80.96
37972;BME280;23794;48.234;8.344;2023-01-15T09:11:21;93377.50;;;2.32;81.01
37972;BME280;23794;48.234;8.344;2023-01-15T09:13:47;93384.78;;;2.28;80.70
37972;BME280;23794;48.234;8.344;2023-01-15T09:16:16;93397.53;;;2.28;80.98
37972;BME280;23794;48.234;8.344;2023-01-15T09:18:43;93407.59;;;2.31;81.15
37972;BME280;23794;48.234;8.344;2023-01-15T09:21:09;93395.84;;;2.16;81.10
37972;BME280;23794;48.234;8.344;2023-01-15T09:23:36;93397.00;;;2.15;80.94
37972;BME280;23794;48.234;8.344;2023-01-15T09:26:05;93406.66;;;2.16;80.64
37972;BME280;23794;48.234;8.344;2023-01-15T09:28:33;93405.06;;;2.11;80.97
37972;BME280;23794;48.234;8.344;2023-01-15T09:31:00;93410.88;;;2.13;80.86
37972;BME280;23794;48.234;8.344;2023-01-15T09:33:27;93420.13;;;2.12;81.11
37972;BME280;23794;48.234;8.344;2023-01-15T09:35:53;93425.06;;;2.07;80.18
37972;BME280;23794;48.234;8.344;2023-01-15T09:38:20;93420.13;;;2.12;81.00
37972;BME280;23794;48.234;8.344;2023-01-15T09:40:56;93426.97;;;2.06;80.76
37972;BME280;23794;48.234;8.344;2023-01-15T09:43:57;93450.94;;;2.08;80.17
37972;BME280;23794;48.234;8.344;2023-01-15T09:46:38;93450.94;;;2.08;80.88
37972;BME280;23794;48.234;8.344;2023-01-15T09:49:36;93447.00;;;2.01;80.13
37972;BME280;23794;48.234;8.344;2023-01-15T09:55:12;93444.19;;;1.94;80.26
37972;BME280;23794;48.234;8.344;2023-01-15T09:57:41;93448.38;;;1.92;79.60
37972;BME280;23794;48.234;8.344;2023-01-15T10:00:14;93465.38;;;1.92;80.66
37972;BME280;23794;48.234;8.344;2023-01-15T10:02:47;93468.22;;;2.03;81.17
37972;BME280;23794;48.234;8.344;2023-01-15T10:05:20;93473.03;;;2.13;81.26
37972;BME280;23794;48.234;8.344;2023-01-15T10:10:44;93476.59;;;2.21;80.74
37972;BME280;23794;48.234;8.344;2023-01-15T10:15:46;93485.47;;;2.22;80.47
37972;BME280;23794;48.234;8.344;2023-01-15T10:18:22;93486.16;;;2.15;79.95
37972;BME280;23794;48.234;8.344;2023-01-15T10:26:54;93476.22;;;2.23;79.13
37972;BME280;23794;48.234;8.344;2023-01-15T10:29:44;93485.41;;;2.18;79.65
37972;BME280;23794;48.234;8.344;2023-01-15T10:35:02;93450.94;;;2.08;80.73
37972;BME280;23794;48.234;8.344;2023-01-15T10:37:57;93460.34;;;1.91;80.64
37972;BME280;23794;48.234;8.344;2023-01-15T10:40:37;93469.75;;;2.00;80.70
37972;BME280;23794;48.234;8.344;2023-01-15T10:46:04;93471.81;;;2.11;80.57
37972;BME280;23794;48.234;8.344;2023-01-15T10:48:39;93460.13;;;2.03;80.21
37972;BME280;23794;48.234;8.344;2023-01-15T10:51:23;93481.38;;;2.05;80.61
37972;BME280;23794;48.234;8.344;2023-01-15T10:53:59;93487.19;;;2.07;80.81
37972;BME280;23794;48.234;8.344;2023-01-15T10:59:18;93487.81;;;1.96;80.61
37972;BME280;23794;48.234;8.344;2023-01-15T11:01:54;93494.25;;;1.88;80.18
37972;BME280;23794;48.234;8.344;2023-01-15T11:04:22;93493.97;;;1.70;80.11
37972;BME280;23794;48.234;8.344;2023-01-15T11:06:50;93504.00;;;1.69;80.56
37972;BME280;23794;48.234;8.344;2023-01-15T11:09:22;93511.56;;;1.60;80.16
37972;BME280;23794;48.234;8.344;2023-01-15T11:11:52;93513.13;;;1.61;80.27
37972;BME280;23794;48.234;8.344;2023-01-15T11:17:21;93518.03;;;1.56;80.25
37972;BME280;23794;48.234;8.344;2023-01-15T11:22:56;93504.41;;;1.48;81.06
37972;BME280;23794;48.234;8.344;2023-01-15T11:25:31;93509.28;;;1.62;81.27
37972;BME280;23794;48.234;8.344;2023-01-15T11:28:01;93512.88;;;1.70;80.91
37972;BME280;23794;48.234;8.344;2023-01-15T11:30:36;93536.88;;;1.75;80.61
37972;BME280;23794;48.234;8.344;2023-01-15T11:33:05;93546.72;;;1.64;79.95
37972;BME280;23794;48.234;8.344;2023-01-15T11:35:33;93535.03;;;1.56;80.29
37972;BME280;23794;48.234;8.344;2023-01-15T11:38:01;93561.91;;;1.29;79.28
37972;BME280;23794;48.234;8.344;2023-01-15T11:40:28;93547.38;;;1.14;80.12
37972;BME280;23794;48.234;8.344;2023-01-15T11:42:55;93570.44;;;0.92;80.71
37972;BME280;23794;48.234;8.344;2023-01-15T11:45:48;93569.09;;;1.02;81.10
37972;BME280;23794;48.234;8.344;2023-01-15T11:48:43;93573.88;;;1.09;80.63
37972;BME280;23794;48.234;8.344;2023-01-15T11:51:30;93557.19;;;1.03;80.40
37972;BME280;23794;48.234;8.344;2023-01-15T11:54:02;93574.94;;;1.04;80.79
37972;BME280;23794;48.234;8.344;2023-01-15T11:56:30;93541.84;;;1.07;80.53
37972;BME280;23794;48.234;8.344;2023-01-15T11:59:02;93578.53;;;1.12;80.30
37972;BME280;23794;48.234;8.344;2023-01-15T12:01:32;93574.38;;;1.14;80.02
37972;BME280;23794;48.234;8.344;2023-01-15T12:04:17;93561.66;;;1.15;80.51
37972;BME280;23794;48.234;8.344;2023-01-15T12:06:48;93570.03;;;1.10;80.40
37972;BME280;23794;48.234;8.344;2023-01-15T12:12:02;93563.63;;;1.18;80.70
37972;BME280;23794;48.234;8.344;2023-01-15T12:25:55;93589.25;;;1.08;80.45
37972;BME280;23794;48.234;8.344;2023-01-15T12:28:39;93593.59;;;1.13;80.47
37972;BME280;23794;48.234;8.344;2023-01-15T12:31:18;93603.59;;;1.12;80.56
37972;BME280;23794;48.234;8.344;2023-01-15T12:33:58;93593.72;;;1.20;80.86
37972;BME280;23794;48.234;8.344;2023-01-15T12:37:11;93610.06;;;1.27;80.71
37972;BME280;23794;48.234;8.344;2023-01-15T12:39:21;93629.81;;;1.31;80.84
37972;BME280;23794;48.234;8.344;2023-01-15T12:41:57;93617.72;;;1.45;80.97
37972;BME280;23794;48.234;8.344;2023-01-15T12:44:46;93620.06;;;1.46;80.37
37972;BME280;23794;48.234;8.344;2023-01-15T12:47:40;93616.66;;;1.49;79.62
37972;BME280;23794;48.234;8.344;2023-01-15T12:53:15;93631.56;;;1.63;78.92
37972;BME280;23794;48.234;8.344;2023-01-15T12:58:42;93622.94;;;1.77;80.21
37972;BME280;23794;48.234;8.344;2023-01-15T13:01:41;93626.47;;;1.81;79.89
37972;BME280;23794;48.234;8.344;2023-01-15T13:04:23;93636.56;;;1.84;79.88
37972;BME280;23794;48.234;8.344;2023-01-15T13:06:54;93649.69;;;1.85;79.68
37972;BME280;23794;48.234;8.344;2023-01-15T13:09:43;93647.66;;;1.79;78.69
37972;BME280;23794;48.234;8.344;2023-01-15T13:12:12;93642.09;;;1.91;79.80
37972;BME280;23794;48.234;8.344;2023-01-15T13:14:40;93646.34;;;1.92;78.97
37972;BME280;23794;48.234;8.344;2023-01-15T13:23:08;93651.22;;;2.06;78.40
37972;BME280;23794;48.234;8.344;2023-01-15T13:28:43;93664.94;;;2.17;78.15
37972;BME280;23794;48.234;8.344;2023-01-15T13:33:47;93670.66;;;2.15;78.42
37972;BME280;23794;48.234;8.344;2023-01-15T13:36:23;93678.00;;;2.15;78.61
37972;BME280;23794;48.234;8.344;2023-01-15T13:38:54;93679.38;;;2.28;78.81
37972;BME280;23794;48.234;8.344;2023-01-15T13:41:28;93684.66;;;2.44;78.80
37972;BME280;23794;48.234;8.344;2023-01-15T13:44:18;93688.28;;;2.29;76.29
37972;BME280;23794;48.234;8.344;2023-01-15T13:46:47;93693.03;;;2.36;77.53
37972;BME280;23794;48.234;8.344;2023-01-15T13:49:32;93712.06;;;2.43;77.83
37972;BME280;23794;48.234;8.344;2023-01-15T13:52:03;93697.94;;;2.53;78.37
37972;BME280;23794;48.234;8.344;2023-01-15T13:54:35;93702.34;;;2.61;78.34
37972;BME280;23794;48.234;8.344;2023-01-15T13:57:18;93705.09;;;2.65;77.96
37972;BME280;23794;48.234;8.344;2023-01-15T13:59:47;93709.06;;;2.71;77.64
37972;BME280;23794;48.234;8.344;2023-01-15T14:02:32;93716.03;;;2.72;78.21
37972;BME280;23794;48.234;8.344;2023-01-15T14:07:50;93710.25;;;2.74;77.74
37972;BME280;23794;48.234;8.344;2023-01-15T14:21:34;93713.59;;;2.67;76.15
37972;BME280;23794;48.234;8.344;2023-01-15T14:36:31;93713.31;;;2.49;76.50
37972;BME280;23794;48.234;8.344;2023-01-15T14:39:02;93713.38;;;2.53;76.95
37972;BME280;23794;48.234;8.344;2023-01-15T14:41:33;93709.91;;;2.52;76.96
37972;BME280;23794;48.234;8.344;2023-01-15T14:44:29;93708.28;;;2.47;77.29
37972;BME280;23794;48.234;8.344;2023-01-15T14:46:58;93706.28;;;2.44;77.16
37972;BME280;23794;48.234;8.344;2023-01-15T14:49:28;93715.66;;;2.27;75.18
37972;BME280;23794;48.234;8.344;2023-01-15T14:51:56;93694.59;;;2.13;74.41
37972;BME280;23794;48.234;8.344;2023-01-15T14:54:24;93699.13;;;2.09;75.66
37972;BME280;23794;48.234;8.344;2023-01-15T14:56:54;93694.88;;;2.08;73.73
37972;BME280;23794;48.234;8.344;2023-01-15T15:02:23;93709.00;;;1.78;75.07
37972;BME280;23794;48.234;8.344;2023-01-15T15:04:57;93716.25;;;1.74;76.47
37972;BME280;23794;48.234;8.344;2023-01-15T15:07:28;93724.47;;;1.62;75.95
37972;BME280;23794;48.234;8.344;2023-01-15T15:10:06;93735.28;;;1.62;78.21
37972;BME280;23794;48.234;8.344;2023-01-15T15:15:16;93732.94;;;1.41;77.86
37972;BME280;23794;48.234;8.344;2023-01-15T15:22:50;93724.47;;;1.42;78.30
37972;BME280;23794;48.234;8.344;2023-01-15T15:25:22;93723.00;;;1.45;78.27
37972;BME280;23794;48.234;8.344;2023-01-15T15:28:00;93724.47;;;1.42;77.87
37972;BME280;23794;48.234;8.344;2023-01-15T15:30:29;93725.31;;;1.46;77.96
37972;BME280;23794;48.234;8.344;2023-01-15T15:32:58;93734.78;;;1.36;78.11